sensor_id;sensor_type;location;lat;lon;timestamp;temperature;humidity
9901;DHT22;4989;48.772;9.154;2023-09-18T00:04:35;24.20;73.40
9901;DHT22;4989;48.772;9.154;2023-09-18T00:09:37;24.30;72.90
9901;DHT22;4989;48.772;9.154;2023-09-18T00:14:39;24.30;73.10
9901;DHT22;4989;48.772;9.154;2023-09-18T00:19:43;24.90;71.60
9901;DHT22;4989;48.772;9.154;2023-09-18T00:24:45;24.70;71.50
9901;DHT22;4989;48.772;9.154;2023-09-18T00:29:47;24.90;71.50
9901;DHT22;4989;48.772;9.154;2023-09-18T00:34:50;25.10;71.00
9901;DHT22;4989;48.772;9.154;2023-09-18T00:39:52;25.40;71.10
9901;DHT22;4989;48.772;9.154;2023-09-18T00:44:54;25.30;71.20
9901;DHT22;4989;48.772;9.154;2023-09-18T00:49:57;25.10;71.10
9901;DHT22;4989;48.772;9.154;2023-09-18T00:55:00;24.70;72.10
9901;DHT22;4989;48.772;9.154;2023-09-18T01:00:04;24.60;72.10
9901;DHT22;4989;48.772;9.154;2023-09-18T01:05:08;24.60;72.30
9901;DHT22;4989;48.772;9.154;2023-09-18T01:10:10;24.60;72.00
9901;DHT22;4989;48.772;9.154;2023-09-18T01:15:36;24.10;73.90
9901;DHT22;4989;48.772;9.154;2023-09-18T01:20:47;23.80;74.90
9901;DHT22;4989;48.772;9.154;2023-09-18T01:25:49;24.20;75.00
9901;DHT22;4989;48.772;9.154;2023-09-18T01:30:51;24.00;75.30
9901;DHT22;4989;48.772;9.154;2023-09-18T01:35:56;23.60;76.10
9901;DHT22;4989;48.772;9.154;2023-09-18T01:41:01;23.70;76.10
9901;DHT22;4989;48.772;9.154;2023-09-18T01:46:04;23.60;76.50
9901;DHT22;4989;48.772;9.154;2023-09-18T01:51:07;23.40;77.70
9901;DHT22;4989;48.772;9.154;2023-09-18T01:56:09;23.50;77.80
9901;DHT22;4989;48.772;9.154;2023-09-18T02:01:12;24.00;75.70
9901;DHT22;4989;48.772;9.154;2023-09-18T02:06:14;24.10;72.90
9901;DHT22;4989;48.772;9.154;2023-09-18T02:11:17;23.90;76.70
9901;DHT22;4989;48.772;9.154;2023-09-18T02:16:19;23.40;80.20
9901;DHT22;4989;48.772;9.154;2023-09-18T02:21:26;24.20;81.00
9901;DHT22;4989;48.772;9.154;2023-09-18T02:26:28;24.10;81.90
9901;DHT22;4989;48.772;9.154;2023-09-18T02:31:32;23.40;80.20
9901;DHT22;4989;48.772;9.154;2023-09-18T02:36:34;23.20;79.10
9901;DHT22;4989;48.772;9.154;2023-09-18T02:41:36;23.80;81.70
9901;DHT22;4989;48.772;9.154;2023-09-18T02:46:41;23.60;79.00
9901;DHT22;4989;48.772;9.154;2023-09-18T02:51:46;23.50;77.20
9901;DHT22;4989;48.772;9.154;2023-09-18T02:56:48;23.40;77.80
9901;DHT22;4989;48.772;9.154;2023-09-18T03:01:51;23.20;79.10
9901;DHT22;4989;48.772;9.154;2023-09-18T03:06:54;23.00;79.00
9901;DHT22;4989;48.772;9.154;2023-09-18T03:11:56;22.90;78.90
9901;DHT22;4989;48.772;9.154;2023-09-18T03:17:00;23.00;78.60
9901;DHT22;4989;48.772;9.154;2023-09-18T03:22:03;23.60;80.30
9901;DHT22;4989;48.772;9.154;2023-09-18T03:27:05;24.40;76.80
9901;DHT22;4989;48.772;9.154;2023-09-18T03:32:08;24.50;76.40
9901;DHT22;4989;48.772;9.154;2023-09-18T03:37:14;23.50;79.40
9901;DHT22;4989;48.772;9.154;2023-09-18T03:42:17;23.10;81.10
9901;DHT22;4989;48.772;9.154;2023-09-18T03:47:20;23.80;79.50
9901;DHT22;4989;48.772;9.154;2023-09-18T03:52:23;24.40;79.00
9901;DHT22;4989;48.772;9.154;2023-09-18T03:57:26;24.70;77.40
9901;DHT22;4989;48.772;9.154;2023-09-18T04:02:29;24.70;76.30
9901;DHT22;4989;48.772;9.154;2023-09-18T04:07:32;23.10;79.80
9901;DHT22;4989;48.772;9.154;2023-09-18T04:12:35;22.50;82.30
9901;DHT22;4989;48.772;9.154;2023-09-18T04:17:37;23.00;82.20
9901;DHT22;4989;48.772;9.154;2023-09-18T04:22:45;23.60;81.70
9901;DHT22;4989;48.772;9.154;2023-09-18T04:27:52;23.90;80.30
9901;DHT22;4989;48.772;9.154;2023-09-18T04:32:55;23.60;81.40
9901;DHT22;4989;48.772;9.154;2023-09-18T04:37:59;24.00;80.10
9901;DHT22;4989;48.772;9.154;2023-09-18T04:43:03;24.50;80.00
9901;DHT22;4989;48.772;9.154;2023-09-18T04:48:08;24.60;78.40
9901;DHT22;4989;48.772;9.154;2023-09-18T04:53:12;24.20;79.60
9901;DHT22;4989;48.772;9.154;2023-09-18T04:58:15;23.80;80.80
9901;DHT22;4989;48.772;9.154;2023-09-18T05:03:18;23.30;82.50
9901;DHT22;4989;48.772;9.154;2023-09-18T05:08:21;22.90;84.30
9901;DHT22;4989;48.772;9.154;2023-09-18T05:13:24;23.40;82.80
9901;DHT22;4989;48.772;9.154;2023-09-18T05:18:26;23.70;81.50
9901;DHT22;4989;48.772;9.154;2023-09-18T05:23:29;23.30;83.00
9901;DHT22;4989;48.772;9.154;2023-09-18T05:28:31;22.20;87.10
9901;DHT22;4989;48.772;9.154;2023-09-18T05:33:34;22.30;87.70
9901;DHT22;4989;48.772;9.154;2023-09-18T05:38:36;22.40;87.20
9901;DHT22;4989;48.772;9.154;2023-09-18T05:43:38;22.20;89.00
9901;DHT22;4989;48.772;9.154;2023-09-18T05:48:40;22.20;89.00
9901;DHT22;4989;48.772;9.154;2023-09-18T05:53:44;22.20;88.90
9901;DHT22;4989;48.772;9.154;2023-09-18T05:58:46;22.30;88.40
9901;DHT22;4989;48.772;9.154;2023-09-18T06:03:48;22.40;88.20
9901;DHT22;4989;48.772;9.154;2023-09-18T06:08:51;22.30;88.50
9901;DHT22;4989;48.772;9.154;2023-09-18T06:13:56;21.80;90.50
9901;DHT22;4989;48.772;9.154;2023-09-18T06:18:58;22.00;91.20
9901;DHT22;4989;48.772;9.154;2023-09-18T06:24:02;21.70;93.10
9901;DHT22;4989;48.772;9.154;2023-09-18T06:29:04;21.40;93.90
9901;DHT22;4989;48.772;9.154;2023-09-18T06:34:06;21.00;96.70
9901;DHT22;4989;48.772;9.154;2023-09-18T06:39:08;21.00;98.90
9901;DHT22;4989;48.772;9.154;2023-09-18T06:44:10;20.90;99.90
9901;DHT22;4989;48.772;9.154;2023-09-18T06:49:13;21.40;99.90
9901;DHT22;4989;48.772;9.154;2023-09-18T06:54:15;20.80;99.90
9901;DHT22;4989;48.772;9.154;2023-09-18T06:59:17;20.90;99.90
9901;DHT22;4989;48.772;9.154;2023-09-18T07:04:19;21.10;99.90
9901;DHT22;4989;48.772;9.154;2023-09-18T07:09:22;21.10;99.90
9901;DHT22;4989;48.772;9.154;2023-09-18T07:14:25;21.20;99.90
9901;DHT22;4989;48.772;9.154;2023-09-18T07:19:37;21.30;99.90
9901;DHT22;4989;48.772;9.154;2023-09-18T07:24:39;21.50;99.00
9901;DHT22;4989;48.772;9.154;2023-09-18T07:29:43;21.60;97.10
9901;DHT22;4989;48.772;9.154;2023-09-18T07:34:46;21.80;95.90
9901;DHT22;4989;48.772;9.154;2023-09-18T07:39:49;21.90;95.30
9901;DHT22;4989;48.772;9.154;2023-09-18T07:44:51;22.00;94.80
9901;DHT22;4989;48.772;9.154;2023-09-18T07:49:54;21.80;96.10
9901;DHT22;4989;48.772;9.154;2023-09-18T07:54:56;21.60;95.20
9901;DHT22;4989;48.772;9.154;2023-09-18T08:00:00;21.60;95.70
9901;DHT22;4989;48.772;9.154;2023-09-18T08:05:14;22.00;94.70
9901;DHT22;4989;48.772;9.154;2023-09-18T08:10:16;21.90;94.70
9901;DHT22;4989;48.772;9.154;2023-09-18T08:15:20;22.10;93.70
9901;DHT22;4989;48.772;9.154;2023-09-18T08:20:22;21.90;93.80
9901;DHT22;4989;48.772;9.154;2023-09-18T08:25:25;21.80;93.90
9901;DHT22;4989;48.772;9.154;2023-09-18T08:30:28;21.50;94.80
9901;DHT22;4989;48.772;9.154;2023-09-18T08:35:30;21.60;94.70
9901;DHT22;4989;48.772;9.154;2023-09-18T08:40:34;22.00;94.60
9901;DHT22;4989;48.772;9.154;2023-09-18T08:45:56;21.70;97.10
9901;DHT22;4989;48.772;9.154;2023-09-18T08:51:04;21.40;97.30
9901;DHT22;4989;48.772;9.154;2023-09-18T08:56:08;21.30;98.40
9901;DHT22;4989;48.772;9.154;2023-09-18T09:01:12;21.30;99.20
9901;DHT22;4989;48.772;9.154;2023-09-18T09:06:14;20.70;99.90
9901;DHT22;4989;48.772;9.154;2023-09-18T09:11:17;20.70;99.90
9901;DHT22;4989;48.772;9.154;2023-09-18T09:16:21;20.80;99.90
9901;DHT22;4989;48.772;9.154;2023-09-18T09:21:38;20.40;99.90
9901;DHT22;4989;48.772;9.154;2023-09-18T09:26:57;20.50;99.90
9901;DHT22;4989;48.772;9.154;2023-09-18T09:32:16;20.10;99.90
9901;DHT22;4989;48.772;9.154;2023-09-18T09:37:29;20.20;99.90
9901;DHT22;4989;48.772;9.154;2023-09-18T09:42:39;20.00;99.90
9901;DHT22;4989;48.772;9.154;2023-09-18T09:47:43;20.20;99.90
9901;DHT22;4989;48.772;9.154;2023-09-18T09:52:47;20.30;99.90
9901;DHT22;4989;48.772;9.154;2023-09-18T09:57:54;20.80;99.90
9901;DHT22;4989;48.772;9.154;2023-09-18T10:03:01;20.50;99.90
9901;DHT22;4989;48.772;9.154;2023-09-18T10:08:10;21.20;99.90
9901;DHT22;4989;48.772;9.154;2023-09-18T10:13:33;21.40;99.90
9901;DHT22;4989;48.772;9.154;2023-09-18T10:19:32;21.70;99.90
9901;DHT22;4989;48.772;9.154;2023-09-18T10:24:28;21.60;99.90
9901;DHT22;4989;48.772;9.154;2023-09-18T10:29:35;21.50;99.90
9901;DHT22;4989;48.772;9.154;2023-09-18T10:34:38;21.10;99.90
9901;DHT22;4989;48.772;9.154;2023-09-18T10:39:42;21.00;99.90
9901;DHT22;4989;48.772;9.154;2023-09-18T10:44:50;20.70;99.90
9901;DHT22;4989;48.772;9.154;2023-09-18T10:49:54;20.40;99.90
9901;DHT22;4989;48.772;9.154;2023-09-18T10:54:56;20.40;99.90
9901;DHT22;4989;48.772;9.154;2023-09-18T10:59:58;20.90;99.90
9901;DHT22;4989;48.772;9.154;2023-09-18T11:05:02;20.80;99.90
9901;DHT22;4989;48.772;9.154;2023-09-18T11:10:25;20.50;99.90
9901;DHT22;4989;48.772;9.154;2023-09-18T11:15:31;20.30;99.90
9901;DHT22;4989;48.772;9.154;2023-09-18T11:20:34;20.50;99.90
9901;DHT22;4989;48.772;9.154;2023-09-18T11:25:39;20.60;99.90
9901;DHT22;4989;48.772;9.154;2023-09-18T11:30:54;20.10;99.90
9901;DHT22;4989;48.772;9.154;2023-09-18T11:36:12;20.40;99.90
9901;DHT22;4989;48.772;9.154;2023-09-18T11:41:36;20.50;99.90
9901;DHT22;4989;48.772;9.154;2023-09-18T11:46:45;20.40;99.90
9901;DHT22;4989;48.772;9.154;2023-09-18T11:51:58;20.30;99.90
9901;DHT22;4989;48.772;9.154;2023-09-18T11:57:05;20.40;99.90
9901;DHT22;4989;48.772;9.154;2023-09-18T12:02:08;20.70;99.90
9901;DHT22;4989;48.772;9.154;2023-09-18T12:07:12;20.60;99.90
9901;DHT22;4989;48.772;9.154;2023-09-18T12:12:16;20.70;99.90
9901;DHT22;4989;48.772;9.154;2023-09-18T12:17:19;20.90;99.90
9901;DHT22;4989;48.772;9.154;2023-09-18T12:22:29;21.40;99.90
9901;DHT22;4989;48.772;9.154;2023-09-18T12:27:35;20.60;99.90
9901;DHT22;4989;48.772;9.154;2023-09-18T12:32:39;20.60;99.90
9901;DHT22;4989;48.772;9.154;2023-09-18T12:37:41;20.80;99.90
9901;DHT22;4989;48.772;9.154;2023-09-18T12:42:43;20.80;99.90
9901;DHT22;4989;48.772;9.154;2023-09-18T12:47:46;21.00;99.90
9901;DHT22;4989;48.772;9.154;2023-09-18T12:52:49;21.50;99.90
9901;DHT22;4989;48.772;9.154;2023-09-18T12:57:54;21.90;99.90
9901;DHT22;4989;48.772;9.154;2023-09-18T13:02:57;22.50;99.90
9901;DHT22;4989;48.772;9.154;2023-09-18T13:08:05;22.60;99.90
9901;DHT22;4989;48.772;9.154;2023-09-18T13:13:16;22.40;99.90
9901;DHT22;4989;48.772;9.154;2023-09-18T13:18:23;22.50;99.20
9901;DHT22;4989;48.772;9.154;2023-09-18T13:23:32;22.80;97.40
9901;DHT22;4989;48.772;9.154;2023-09-18T13:28:35;23.00;96.70
9901;DHT22;4989;48.772;9.154;2023-09-18T13:33:39;22.80;96.00
9901;DHT22;4989;48.772;9.154;2023-09-18T13:38:43;23.50;95.10
9901;DHT22;4989;48.772;9.154;2023-09-18T13:43:46;24.30;92.10
9901;DHT22;4989;48.772;9.154;2023-09-18T13:48:49;24.10;91.70
9901;DHT22;4989;48.772;9.154;2023-09-18T13:53:55;23.50;91.90
9901;DHT22;4989;48.772;9.154;2023-09-18T13:58:58;23.20;93.70
9901;DHT22;4989;48.772;9.154;2023-09-18T14:04:01;23.50;92.80
9901;DHT22;4989;48.772;9.154;2023-09-18T14:09:03;23.40;92.00
9901;DHT22;4989;48.772;9.154;2023-09-18T14:14:07;23.00;92.30
9901;DHT22;4989;48.772;9.154;2023-09-18T14:19:09;22.90;92.70
9901;DHT22;4989;48.772;9.154;2023-09-18T14:24:12;22.70;92.30
9901;DHT22;4989;48.772;9.154;2023-09-18T14:29:15;22.50;91.60
9901;DHT22;4989;48.772;9.154;2023-09-18T14:34:17;22.60;92.00
9901;DHT22;4989;48.772;9.154;2023-09-18T14:39:19;22.60;92.00
9901;DHT22;4989;48.772;9.154;2023-09-18T14:44:21;22.80;91.70
9901;DHT22;4989;48.772;9.154;2023-09-18T14:49:24;22.70;91.80
9901;DHT22;4989;48.772;9.154;2023-09-18T14:54:29;23.10;90.40
9901;DHT22;4989;48.772;9.154;2023-09-18T14:59:31;23.80;87.90
9901;DHT22;4989;48.772;9.154;2023-09-18T15:04:46;24.10;85.90
9901;DHT22;4989;48.772;9.154;2023-09-18T15:09:49;23.50;87.10
9901;DHT22;4989;48.772;9.154;2023-09-18T15:14:51;22.80;89.70
9901;DHT22;4989;48.772;9.154;2023-09-18T15:19:54;23.00;90.10
9901;DHT22;4989;48.772;9.154;2023-09-18T15:24:57;23.20;89.40
9901;DHT22;4989;48.772;9.154;2023-09-18T15:30:02;23.30;87.90
9901;DHT22;4989;48.772;9.154;2023-09-18T15:35:07;22.90;89.70
9901;DHT22;4989;48.772;9.154;2023-09-18T15:40:12;22.90;89.90
9901;DHT22;4989;48.772;9.154;2023-09-18T15:50:19;22.80;89.10
9901;DHT22;4989;48.772;9.154;2023-09-18T15:55:23;22.50;90.60
9901;DHT22;4989;48.772;9.154;2023-09-18T16:00:26;22.50;90.50
9901;DHT22;4989;48.772;9.154;2023-09-18T16:05:28;22.30;90.60
9901;DHT22;4989;48.772;9.154;2023-09-18T16:10:31;22.20;90.60
9901;DHT22;4989;48.772;9.154;2023-09-18T16:15:34;22.10;90.80
9901;DHT22;4989;48.772;9.154;2023-09-18T16:20:36;22.40;90.50
9901;DHT22;4989;48.772;9.154;2023-09-18T16:25:38;22.40;90.00
9901;DHT22;4989;48.772;9.154;2023-09-18T16:30:40;22.30;90.40
9901;DHT22;4989;48.772;9.154;2023-09-18T16:35:43;22.00;91.10
9901;DHT22;4989;48.772;9.154;2023-09-18T16:40:48;21.90;91.50
9901;DHT22;4989;48.772;9.154;2023-09-18T16:45:50;21.80;91.80
9901;DHT22;4989;48.772;9.154;2023-09-18T16:50:52;21.90;92.00
9901;DHT22;4989;48.772;9.154;2023-09-18T16:55:55;21.90;92.10
9901;DHT22;4989;48.772;9.154;2023-09-18T17:00:57;21.80;92.30
9901;DHT22;4989;48.772;9.154;2023-09-18T17:05:59;21.80;92.30
9901;DHT22;4989;48.772;9.154;2023-09-18T17:11:02;21.50;92.80
9901;DHT22;4989;48.772;9.154;2023-09-18T17:16:07;21.50;93.10
9901;DHT22;4989;48.772;9.154;2023-09-18T17:21:10;21.50;93.20
9901;DHT22;4989;48.772;9.154;2023-09-18T17:26:12;21.60;93.20
9901;DHT22;4989;48.772;9.154;2023-09-18T17:31:15;21.50;93.50
9901;DHT22;4989;48.772;9.154;2023-09-18T17:36:17;21.40;93.70
9901;DHT22;4989;48.772;9.154;2023-09-18T17:41:20;21.80;93.10
9901;DHT22;4989;48.772;9.154;2023-09-18T17:46:22;21.70;93.00
9901;DHT22;4989;48.772;9.154;2023-09-18T17:51:24;21.60;93.60
9901;DHT22;4989;48.772;9.154;2023-09-18T17:56:27;21.50;93.60
9901;DHT22;4989;48.772;9.154;2023-09-18T18:01:29;21.60;95.80
9901;DHT22;4989;48.772;9.154;2023-09-18T18:06:33;22.10;92.70
9901;DHT22;4989;48.772;9.154;2023-09-18T18:11:35;21.80;93.60
9901;DHT22;4989;48.772;9.154;2023-09-18T18:16:38;21.90;93.40
9901;DHT22;4989;48.772;9.154;2023-09-18T18:21:40;21.20;94.70
9901;DHT22;4989;48.772;9.154;2023-09-18T18:26:43;21.40;94.70
9901;DHT22;4989;48.772;9.154;2023-09-18T18:31:45;21.40;95.00
9901;DHT22;4989;48.772;9.154;2023-09-18T18:36:48;21.30;95.10
9901;DHT22;4989;48.772;9.154;2023-09-18T18:41:50;21.10;95.60
9901;DHT22;4989;48.772;9.154;2023-09-18T18:46:52;20.90;96.30
9901;DHT22;4989;48.772;9.154;2023-09-18T18:51:55;20.90;96.40
9901;DHT22;4989;48.772;9.154;2023-09-18T18:56:57;20.90;96.50
9901;DHT22;4989;48.772;9.154;2023-09-18T19:01:59;20.90;96.90
9901;DHT22;4989;48.772;9.154;2023-09-18T19:07:04;20.90;97.10
9901;DHT22;4989;48.772;9.154;2023-09-18T19:12:07;20.80;97.40
9901;DHT22;4989;48.772;9.154;2023-09-18T19:17:10;20.70;98.20
9901;DHT22;4989;48.772;9.154;2023-09-18T19:22:12;20.60;97.90
9901;DHT22;4989;48.772;9.154;2023-09-18T19:27:14;20.40;98.60
9901;DHT22;4989;48.772;9.154;2023-09-18T19:32:17;20.10;99.90
9901;DHT22;4989;48.772;9.154;2023-09-18T19:37:20;19.70;99.90
9901;DHT22;4989;48.772;9.154;2023-09-18T19:42:23;19.70;99.90
9901;DHT22;4989;48.772;9.154;2023-09-18T19:47:25;19.60;99.90
9901;DHT22;4989;48.772;9.154;2023-09-18T19:52:27;19.50;99.90
9901;DHT22;4989;48.772;9.154;2023-09-18T19:57:29;19.60;99.90
9901;DHT22;4989;48.772;9.154;2023-09-18T20:02:33;19.30;99.90
9901;DHT22;4989;48.772;9.154;2023-09-18T20:07:39;19.40;99.90
9901;DHT22;4989;48.772;9.154;2023-09-18T20:12:43;19.30;99.90
9901;DHT22;4989;48.772;9.154;2023-09-18T20:17:48;19.30;99.90
9901;DHT22;4989;48.772;9.154;2023-09-18T20:22:52;19.00;99.90
9901;DHT22;4989;48.772;9.154;2023-09-18T20:27:55;18.90;99.90
9901;DHT22;4989;48.772;9.154;2023-09-18T20:32:57;18.60;99.90
9901;DHT22;4989;48.772;9.154;2023-09-18T20:38:00;18.50;99.90
9901;DHT22;4989;48.772;9.154;2023-09-18T20:43:02;18.40;99.90
9901;DHT22;4989;48.772;9.154;2023-09-18T20:48:06;18.30;99.90
9901;DHT22;4989;48.772;9.154;2023-09-18T20:53:09;18.30;99.90
9901;DHT22;4989;48.772;9.154;2023-09-18T20:58:12;18.30;99.90
9901;DHT22;4989;48.772;9.154;2023-09-18T21:03:14;18.20;99.90
9901;DHT22;4989;48.772;9.154;2023-09-18T21:08:17;18.30;99.90
9901;DHT22;4989;48.772;9.154;2023-09-18T21:13:19;18.10;99.90
9901;DHT22;4989;48.772;9.154;2023-09-18T21:18:21;18.00;99.90
9901;DHT22;4989;48.772;9.154;2023-09-18T21:23:23;18.00;99.90
9901;DHT22;4989;48.772;9.154;2023-09-18T21:28:26;17.80;99.90
9901;DHT22;4989;48.772;9.154;2023-09-18T21:33:28;17.70;99.90
9901;DHT22;4989;48.772;9.154;2023-09-18T21:38:31;17.70;99.90
9901;DHT22;4989;48.772;9.154;2023-09-18T21:43:34;17.80;99.90
9901;DHT22;4989;48.772;9.154;2023-09-18T21:48:37;17.90;99.90
9901;DHT22;4989;48.772;9.154;2023-09-18T21:53:40;18.00;99.90
9901;DHT22;4989;48.772;9.154;2023-09-18T21:58:42;18.00;99.90
9901;DHT22;4989;48.772;9.154;2023-09-18T22:03:45;17.90;99.90
9901;DHT22;4989;48.772;9.154;2023-09-18T22:08:48;18.00;99.90
9901;DHT22;4989;48.772;9.154;2023-09-18T22:13:50;18.20;99.90
9901;DHT22;4989;48.772;9.154;2023-09-18T22:18:53;18.20;99.90
9901;DHT22;4989;48.772;9.154;2023-09-18T22:23:56;18.30;99.90
9901;DHT22;4989;48.772;9.154;2023-09-18T22:28:59;18.30;99.90
9901;DHT22;4989;48.772;9.154;2023-09-18T22:34:01;18.30;99.90
9901;DHT22;4989;48.772;9.154;2023-09-18T22:56:31;18.40;99.90
9901;DHT22;4989;48.772;9.154;2023-09-18T23:01:34;18.30;99.90
9901;DHT22;4989;48.772;9.154;2023-09-18T23:06:37;18.40;99.90
9901;DHT22;4989;48.772;9.154;2023-09-18T23:11:39;18.30;99.90
9901;DHT22;4989;48.772;9.154;2023-09-18T23:16:42;18.30;99.90
9901;DHT22;4989;48.772;9.154;2023-09-18T23:21:45;18.40;99.90
9901;DHT22;4989;48.772;9.154;2023-09-18T23:26:47;18.50;99.90
9901;DHT22;4989;48.772;9.154;2023-09-18T23:31:50;18.40;99.90
9901;DHT22;4989;48.772;9.154;2023-09-18T23:36:53;18.40;99.90
9901;DHT22;4989;48.772;9.154;2023-09-18T23:41:56;18.20;99.90
9901;DHT22;4989;48.772;9.154;2023-09-18T23:47:01;18.30;99.90
9901;DHT22;4989;48.772;9.154;2023-09-18T23:52:04;18.20;99.90
9901;DHT22;4989;48.772;9.154;2023-09-18T23:57:06;18.00;99.90
